Kathmandu, Nepal
Current Conditions -  °F | °C
As of 7:50 AM on Thursday 27 Nov 2014 (Local Time) from VEPT Reporting Station
Smoke Smoke  
Wind Chill: 63°   Ceiling: Unl
Heat Index: 63°   Visibility: 0.75mi
Dew Point: 50°   Wind: 1mph
Humidity: 63%   Direction: 260°W
Pressure: 29.94"   Gusts: NA
Location:  27.71°N, 85.31°E
Report Text: VEPT 270250Z 26001KT 1200 FU NSC 17/10 Q1014 NOSIG
Loading
Personal Weather Stations






























Interactive Weather Map New forecast layout! Learn more

10-Day Weather Forecast

Advertisements
Track Severe Weather on mobile